sensor_id;sensor_type;location;lat;lon;timestamp;temperature;humidity
74359;DHT22;62792;46.236;6.040;2023-03-01T00:00:32;23.60;30.50
74359;DHT22;62792;46.236;6.040;2023-03-01T00:05:35;23.50;30.30
74359;DHT22;62792;46.236;6.040;2023-03-01T00:10:38;23.60;30.40
74359;DHT22;62792;46.236;6.040;2023-03-01T00:15:43;23.50;30.40
74359;DHT22;62792;46.236;6.040;2023-03-01T00:20:49;23.50;30.50
74359;DHT22;62792;46.236;6.040;2023-03-01T00:25:52;23.50;30.40
74359;DHT22;62792;46.236;6.040;2023-03-01T00:30:57;23.50;30.40
74359;DHT22;62792;46.236;6.040;2023-03-01T00:36:05;23.50;30.50
74359;DHT22;62792;46.236;6.040;2023-03-01T00:41:09;23.50;30.50
74359;DHT22;62792;46.236;6.040;2023-03-01T00:46:15;23.50;30.50
74359;DHT22;62792;46.236;6.040;2023-03-01T00:51:19;23.50;30.40
74359;DHT22;62792;46.236;6.040;2023-03-01T00:56:24;23.50;30.30
74359;DHT22;62792;46.236;6.040;2023-03-01T01:01:30;23.50;30.50
74359;DHT22;62792;46.236;6.040;2023-03-01T01:06:34;23.50;30.40
74359;DHT22;62792;46.236;6.040;2023-03-01T01:11:38;23.40;30.30
74359;DHT22;62792;46.236;6.040;2023-03-01T01:16:42;23.40;30.20
74359;DHT22;62792;46.236;6.040;2023-03-01T01:21:46;23.50;30.20
74359;DHT22;62792;46.236;6.040;2023-03-01T01:26:49;23.50;30.40
74359;DHT22;62792;46.236;6.040;2023-03-01T01:31:54;23.50;30.30
74359;DHT22;62792;46.236;6.040;2023-03-01T01:36:57;23.50;30.40
74359;DHT22;62792;46.236;6.040;2023-03-01T01:42:04;23.50;30.30
74359;DHT22;62792;46.236;6.040;2023-03-01T01:47:11;23.50;30.30
74359;DHT22;62792;46.236;6.040;2023-03-01T01:52:16;23.50;30.40
74359;DHT22;62792;46.236;6.040;2023-03-01T01:57:23;23.50;30.20
74359;DHT22;62792;46.236;6.040;2023-03-01T02:02:32;23.40;30.20
74359;DHT22;62792;46.236;6.040;2023-03-01T02:07:35;23.40;30.30
74359;DHT22;62792;46.236;6.040;2023-03-01T02:12:39;23.40;30.40
74359;DHT22;62792;46.236;6.040;2023-03-01T02:17:43;23.50;30.20
74359;DHT22;62792;46.236;6.040;2023-03-01T02:22:46;23.40;30.20
74359;DHT22;62792;46.236;6.040;2023-03-01T02:27:53;23.50;30.00
74359;DHT22;62792;46.236;6.040;2023-03-01T02:33:04;23.50;30.30
74359;DHT22;62792;46.236;6.040;2023-03-01T02:38:07;23.40;30.20
74359;DHT22;62792;46.236;6.040;2023-03-01T02:43:11;23.40;30.10
74359;DHT22;62792;46.236;6.040;2023-03-01T02:48:16;23.50;30.20
74359;DHT22;62792;46.236;6.040;2023-03-01T02:53:21;23.50;30.30
74359;DHT22;62792;46.236;6.040;2023-03-01T02:58:26;23.50;30.40
74359;DHT22;62792;46.236;6.040;2023-03-01T03:03:30;23.40;30.20
74359;DHT22;62792;46.236;6.040;2023-03-01T03:08:33;23.40;30.30
74359;DHT22;62792;46.236;6.040;2023-03-01T03:13:36;23.40;30.20
74359;DHT22;62792;46.236;6.040;2023-03-01T03:18:50;23.50;30.00
74359;DHT22;62792;46.236;6.040;2023-03-01T03:23:53;23.40;30.30
74359;DHT22;62792;46.236;6.040;2023-03-01T03:28:59;23.50;30.30
74359;DHT22;62792;46.236;6.040;2023-03-01T03:34:04;23.40;30.10
74359;DHT22;62792;46.236;6.040;2023-03-01T03:39:07;23.40;30.00
74359;DHT22;62792;46.236;6.040;2023-03-01T03:44:10;23.40;30.20
74359;DHT22;62792;46.236;6.040;2023-03-01T03:49:14;23.40;30.40
74359;DHT22;62792;46.236;6.040;2023-03-01T03:54:17;23.30;30.10
74359;DHT22;62792;46.236;6.040;2023-03-01T03:59:20;23.40;30.10
74359;DHT22;62792;46.236;6.040;2023-03-01T04:04:25;23.30;30.20
74359;DHT22;62792;46.236;6.040;2023-03-01T04:09:29;23.40;30.20
74359;DHT22;62792;46.236;6.040;2023-03-01T04:14:32;23.40;30.00
74359;DHT22;62792;46.236;6.040;2023-03-01T04:19:36;23.40;30.20
74359;DHT22;62792;46.236;6.040;2023-03-01T04:24:39;23.40;30.20
74359;DHT22;62792;46.236;6.040;2023-03-01T04:29:42;23.40;30.20
74359;DHT22;62792;46.236;6.040;2023-03-01T04:34:46;23.30;30.00
74359;DHT22;62792;46.236;6.040;2023-03-01T04:39:50;23.30;30.10
74359;DHT22;62792;46.236;6.040;2023-03-01T04:44:53;23.40;30.20
74359;DHT22;62792;46.236;6.040;2023-03-01T04:49:57;23.30;30.30
74359;DHT22;62792;46.236;6.040;2023-03-01T04:55:00;23.30;30.10
74359;DHT22;62792;46.236;6.040;2023-03-01T05:00:04;23.40;30.20
74359;DHT22;62792;46.236;6.040;2023-03-01T05:05:23;23.40;29.90
74359;DHT22;62792;46.236;6.040;2023-03-01T05:10:28;23.30;30.30
74359;DHT22;62792;46.236;6.040;2023-03-01T05:15:34;23.20;30.10
74359;DHT22;62792;46.236;6.040;2023-03-01T05:20:39;23.30;30.10
74359;DHT22;62792;46.236;6.040;2023-03-01T05:25:43;23.40;29.90
74359;DHT22;62792;46.236;6.040;2023-03-01T05:30:46;23.30;30.20
74359;DHT22;62792;46.236;6.040;2023-03-01T05:35:51;23.30;30.10
74359;DHT22;62792;46.236;6.040;2023-03-01T05:40:54;23.40;30.10
74359;DHT22;62792;46.236;6.040;2023-03-01T05:45:57;23.30;30.00
74359;DHT22;62792;46.236;6.040;2023-03-01T05:51:02;23.30;30.20
74359;DHT22;62792;46.236;6.040;2023-03-01T05:56:05;23.30;30.10
74359;DHT22;62792;46.236;6.040;2023-03-01T06:01:11;23.30;30.10
74359;DHT22;62792;46.236;6.040;2023-03-01T06:06:16;23.30;30.20
74359;DHT22;62792;46.236;6.040;2023-03-01T06:11:18;23.40;30.00
74359;DHT22;62792;46.236;6.040;2023-03-01T06:16:22;23.30;29.80
74359;DHT22;62792;46.236;6.040;2023-03-01T06:21:28;23.30;30.10
74359;DHT22;62792;46.236;6.040;2023-03-01T06:26:31;23.30;30.10
74359;DHT22;62792;46.236;6.040;2023-03-01T06:31:34;23.30;30.10
74359;DHT22;62792;46.236;6.040;2023-03-01T06:36:40;23.20;30.20
74359;DHT22;62792;46.236;6.040;2023-03-01T06:41:43;23.30;29.90
74359;DHT22;62792;46.236;6.040;2023-03-01T06:46:45;23.30;30.10
74359;DHT22;62792;46.236;6.040;2023-03-01T06:51:50;23.20;30.00
74359;DHT22;62792;46.236;6.040;2023-03-01T06:56:53;23.20;30.10
74359;DHT22;62792;46.236;6.040;2023-03-01T07:01:56;23.30;30.20
74359;DHT22;62792;46.236;6.040;2023-03-01T07:07:01;23.30;30.20
74359;DHT22;62792;46.236;6.040;2023-03-01T07:12:04;23.30;29.90
74359;DHT22;62792;46.236;6.040;2023-03-01T07:17:07;23.30;30.00
74359;DHT22;62792;46.236;6.040;2023-03-01T07:22:12;23.30;30.00
74359;DHT22;62792;46.236;6.040;2023-03-01T07:27:15;23.20;30.00
74359;DHT22;62792;46.236;6.040;2023-03-01T07:32:18;23.30;30.00
74359;DHT22;62792;46.236;6.040;2023-03-01T07:37:24;23.30;30.00
74359;DHT22;62792;46.236;6.040;2023-03-01T07:42:27;23.20;30.10
74359;DHT22;62792;46.236;6.040;2023-03-01T07:47:31;23.30;30.00
74359;DHT22;62792;46.236;6.040;2023-03-01T07:52:35;23.30;30.00
74359;DHT22;62792;46.236;6.040;2023-03-01T07:57:38;23.30;30.00
74359;DHT22;62792;46.236;6.040;2023-03-01T08:02:41;23.30;29.90
74359;DHT22;62792;46.236;6.040;2023-03-01T08:07:45;23.30;30.10
74359;DHT22;62792;46.236;6.040;2023-03-01T08:12:50;23.30;30.10
74359;DHT22;62792;46.236;6.040;2023-03-01T08:17:54;23.20;30.10
74359;DHT22;62792;46.236;6.040;2023-03-01T08:22:59;23.20;30.00
74359;DHT22;62792;46.236;6.040;2023-03-01T08:28:02;23.20;29.90
74359;DHT22;62792;46.236;6.040;2023-03-01T08:33:06;23.20;29.90
74359;DHT22;62792;46.236;6.040;2023-03-01T08:38:10;23.30;29.80
74359;DHT22;62792;46.236;6.040;2023-03-01T08:43:13;23.20;29.80
74359;DHT22;62792;46.236;6.040;2023-03-01T08:48:16;23.30;29.80
74359;DHT22;62792;46.236;6.040;2023-03-01T08:53:20;23.30;29.80
74359;DHT22;62792;46.236;6.040;2023-03-01T08:58:23;23.30;29.90
74359;DHT22;62792;46.236;6.040;2023-03-01T09:03:26;23.40;30.00
74359;DHT22;62792;46.236;6.040;2023-03-01T09:08:30;23.40;29.70
74359;DHT22;62792;46.236;6.040;2023-03-01T09:13:34;23.40;29.90
74359;DHT22;62792;46.236;6.040;2023-03-01T09:18:37;23.40;29.80
74359;DHT22;62792;46.236;6.040;2023-03-01T09:23:42;23.50;29.80
74359;DHT22;62792;46.236;6.040;2023-03-01T09:28:46;23.50;29.80
74359;DHT22;62792;46.236;6.040;2023-03-01T09:33:49;23.50;29.90
74359;DHT22;62792;46.236;6.040;2023-03-01T09:38:55;23.50;29.90
74359;DHT22;62792;46.236;6.040;2023-03-01T09:44:02;23.40;29.80
74359;DHT22;62792;46.236;6.040;2023-03-01T09:49:12;23.40;29.90
74359;DHT22;62792;46.236;6.040;2023-03-01T09:54:21;23.40;29.80
74359;DHT22;62792;46.236;6.040;2023-03-01T09:59:25;23.40;30.00
74359;DHT22;62792;46.236;6.040;2023-03-01T10:04:34;23.50;29.70
74359;DHT22;62792;46.236;6.040;2023-03-01T10:09:45;23.40;29.80
74359;DHT22;62792;46.236;6.040;2023-03-01T10:14:52;23.50;29.60
74359;DHT22;62792;46.236;6.040;2023-03-01T10:19:59;23.50;29.90
74359;DHT22;62792;46.236;6.040;2023-03-01T10:25:22;23.60;29.70
74359;DHT22;62792;46.236;6.040;2023-03-01T10:30:32;23.50;29.90
74359;DHT22;62792;46.236;6.040;2023-03-01T10:35:37;23.50;29.70
74359;DHT22;62792;46.236;6.040;2023-03-01T10:40:54;23.50;29.70
74359;DHT22;62792;46.236;6.040;2023-03-01T10:45:59;23.50;29.80
74359;DHT22;62792;46.236;6.040;2023-03-01T10:51:06;23.60;29.10
74359;DHT22;62792;46.236;6.040;2023-03-01T10:56:12;23.70;29.10
74359;DHT22;62792;46.236;6.040;2023-03-01T11:01:26;23.60;29.50
74359;DHT22;62792;46.236;6.040;2023-03-01T11:06:31;23.60;29.60
74359;DHT22;62792;46.236;6.040;2023-03-01T11:11:36;23.60;29.10
74359;DHT22;62792;46.236;6.040;2023-03-01T11:16:40;23.70;29.00
74359;DHT22;62792;46.236;6.040;2023-03-01T11:21:49;23.80;29.10
74359;DHT22;62792;46.236;6.040;2023-03-01T11:26:57;23.70;29.20
74359;DHT22;62792;46.236;6.040;2023-03-01T11:32:05;23.80;29.20
74359;DHT22;62792;46.236;6.040;2023-03-01T11:37:12;23.80;29.10
74359;DHT22;62792;46.236;6.040;2023-03-01T11:42:22;23.90;29.20
74359;DHT22;62792;46.236;6.040;2023-03-01T11:47:32;23.80;29.00
74359;DHT22;62792;46.236;6.040;2023-03-01T11:52:46;23.80;28.90
74359;DHT22;62792;46.236;6.040;2023-03-01T11:58:03;23.80;29.10
74359;DHT22;62792;46.236;6.040;2023-03-01T12:03:26;23.90;29.00
74359;DHT22;62792;46.236;6.040;2023-03-01T12:08:34;23.90;29.00
74359;DHT22;62792;46.236;6.040;2023-03-01T12:13:49;24.10;28.90
74359;DHT22;62792;46.236;6.040;2023-03-01T12:19:05;24.00;29.00
74359;DHT22;62792;46.236;6.040;2023-03-01T12:29:46;24.10;29.00
74359;DHT22;62792;46.236;6.040;2023-03-01T12:46:13;24.10;29.20
74359;DHT22;62792;46.236;6.040;2023-03-01T12:51:23;24.10;29.00
74359;DHT22;62792;46.236;6.040;2023-03-01T12:56:28;24.10;29.20
74359;DHT22;62792;46.236;6.040;2023-03-01T13:01:39;24.20;29.10
74359;DHT22;62792;46.236;6.040;2023-03-01T13:06:46;24.00;29.40
74359;DHT22;62792;46.236;6.040;2023-03-01T13:11:53;24.00;29.20
74359;DHT22;62792;46.236;6.040;2023-03-01T13:16:57;24.10;29.10
74359;DHT22;62792;46.236;6.040;2023-03-01T13:22:01;24.10;29.10
74359;DHT22;62792;46.236;6.040;2023-03-01T13:27:29;24.10;29.30
74359;DHT22;62792;46.236;6.040;2023-03-01T13:32:35;24.10;29.00
74359;DHT22;62792;46.236;6.040;2023-03-01T13:37:45;24.10;29.20
74359;DHT22;62792;46.236;6.040;2023-03-01T13:42:49;24.10;29.20
74359;DHT22;62792;46.236;6.040;2023-03-01T13:48:10;24.20;29.10
74359;DHT22;62792;46.236;6.040;2023-03-01T13:53:16;24.20;29.30
74359;DHT22;62792;46.236;6.040;2023-03-01T13:58:22;24.10;29.10
74359;DHT22;62792;46.236;6.040;2023-03-01T14:03:28;24.10;29.20
74359;DHT22;62792;46.236;6.040;2023-03-01T14:08:33;24.10;29.10
74359;DHT22;62792;46.236;6.040;2023-03-01T14:13:42;24.10;29.20
74359;DHT22;62792;46.236;6.040;2023-03-01T14:18:54;24.10;29.20
74359;DHT22;62792;46.236;6.040;2023-03-01T14:24:06;24.20;28.90
74359;DHT22;62792;46.236;6.040;2023-03-01T14:29:26;24.20;29.30
74359;DHT22;62792;46.236;6.040;2023-03-01T14:34:31;24.20;29.30
74359;DHT22;62792;46.236;6.040;2023-03-01T14:39:34;24.20;29.20
74359;DHT22;62792;46.236;6.040;2023-03-01T14:44:37;24.10;29.30
74359;DHT22;62792;46.236;6.040;2023-03-01T14:49:42;24.10;29.50
74359;DHT22;62792;46.236;6.040;2023-03-01T14:54:46;24.20;29.20
74359;DHT22;62792;46.236;6.040;2023-03-01T14:59:50;24.10;29.50
74359;DHT22;62792;46.236;6.040;2023-03-01T15:04:57;24.10;29.20
74359;DHT22;62792;46.236;6.040;2023-03-01T15:10:02;24.10;29.50
74359;DHT22;62792;46.236;6.040;2023-03-01T15:20:37;24.20;29.60
74359;DHT22;62792;46.236;6.040;2023-03-01T15:25:43;24.10;29.20
74359;DHT22;62792;46.236;6.040;2023-03-01T15:30:51;24.10;29.60
74359;DHT22;62792;46.236;6.040;2023-03-01T15:35:57;24.00;29.50
74359;DHT22;62792;46.236;6.040;2023-03-01T15:41:02;24.10;29.30
74359;DHT22;62792;46.236;6.040;2023-03-01T15:46:12;24.00;29.60
74359;DHT22;62792;46.236;6.040;2023-03-01T15:51:21;24.10;29.50
74359;DHT22;62792;46.236;6.040;2023-03-01T15:56:29;24.00;29.60
74359;DHT22;62792;46.236;6.040;2023-03-01T16:01:33;24.00;29.70
74359;DHT22;62792;46.236;6.040;2023-03-01T16:06:37;24.00;29.60
74359;DHT22;62792;46.236;6.040;2023-03-01T16:11:41;23.90;29.70
74359;DHT22;62792;46.236;6.040;2023-03-01T16:16:44;23.90;29.80
74359;DHT22;62792;46.236;6.040;2023-03-01T16:21:49;24.00;29.70
74359;DHT22;62792;46.236;6.040;2023-03-01T16:26:51;24.00;29.70
74359;DHT22;62792;46.236;6.040;2023-03-01T16:31:54;24.00;29.70
74359;DHT22;62792;46.236;6.040;2023-03-01T16:36:59;23.90;29.70
74359;DHT22;62792;46.236;6.040;2023-03-01T16:42:02;23.90;29.70
74359;DHT22;62792;46.236;6.040;2023-03-01T16:47:06;23.90;29.80
74359;DHT22;62792;46.236;6.040;2023-03-01T16:52:10;23.90;29.90
74359;DHT22;62792;46.236;6.040;2023-03-01T16:57:13;23.90;29.90
74359;DHT22;62792;46.236;6.040;2023-03-01T17:02:17;23.90;29.90
74359;DHT22;62792;46.236;6.040;2023-03-01T17:07:22;23.90;29.80
74359;DHT22;62792;46.236;6.040;2023-03-01T17:12:25;23.80;29.90
74359;DHT22;62792;46.236;6.040;2023-03-01T17:17:29;23.80;29.70
74359;DHT22;62792;46.236;6.040;2023-03-01T17:22:33;23.90;29.90
74359;DHT22;62792;46.236;6.040;2023-03-01T17:27:37;23.90;29.90
74359;DHT22;62792;46.236;6.040;2023-03-01T17:32:40;23.80;29.90
74359;DHT22;62792;46.236;6.040;2023-03-01T17:37:46;23.90;29.90
74359;DHT22;62792;46.236;6.040;2023-03-01T17:42:50;23.90;29.90
74359;DHT22;62792;46.236;6.040;2023-03-01T17:47:53;23.80;29.90
74359;DHT22;62792;46.236;6.040;2023-03-01T17:52:57;23.70;29.90
74359;DHT22;62792;46.236;6.040;2023-03-01T17:58:00;23.80;29.90
74359;DHT22;62792;46.236;6.040;2023-03-01T18:03:03;23.80;30.10
74359;DHT22;62792;46.236;6.040;2023-03-01T18:08:07;23.80;29.90
74359;DHT22;62792;46.236;6.040;2023-03-01T18:13:11;23.70;30.10
74359;DHT22;62792;46.236;6.040;2023-03-01T18:18:15;23.80;29.90
74359;DHT22;62792;46.236;6.040;2023-03-01T18:23:20;23.80;29.90
74359;DHT22;62792;46.236;6.040;2023-03-01T18:28:22;23.70;30.20
74359;DHT22;62792;46.236;6.040;2023-03-01T18:33:27;23.70;30.00
74359;DHT22;62792;46.236;6.040;2023-03-01T18:38:32;23.70;30.00
74359;DHT22;62792;46.236;6.040;2023-03-01T18:43:35;23.70;29.90
74359;DHT22;62792;46.236;6.040;2023-03-01T18:48:38;23.70;29.90
74359;DHT22;62792;46.236;6.040;2023-03-01T18:53:42;23.70;30.10
74359;DHT22;62792;46.236;6.040;2023-03-01T18:58:46;23.60;30.00
74359;DHT22;62792;46.236;6.040;2023-03-01T19:03:48;23.70;30.00
74359;DHT22;62792;46.236;6.040;2023-03-01T19:08:55;23.70;29.80
74359;DHT22;62792;46.236;6.040;2023-03-01T19:13:58;23.70;30.10
74359;DHT22;62792;46.236;6.040;2023-03-01T19:19:03;23.70;30.00
74359;DHT22;62792;46.236;6.040;2023-03-01T19:24:10;23.70;30.00
74359;DHT22;62792;46.236;6.040;2023-03-01T19:29:14;23.70;30.00
74359;DHT22;62792;46.236;6.040;2023-03-01T19:34:16;23.70;30.00
74359;DHT22;62792;46.236;6.040;2023-03-01T19:39:21;23.70;30.00
74359;DHT22;62792;46.236;6.040;2023-03-01T19:44:24;23.70;29.90
74359;DHT22;62792;46.236;6.040;2023-03-01T19:49:27;23.60;30.70
74359;DHT22;62792;46.236;6.040;2023-03-01T19:54:31;23.70;29.90
74359;DHT22;62792;46.236;6.040;2023-03-01T19:59:34;23.60;30.10
74359;DHT22;62792;46.236;6.040;2023-03-01T20:04:37;23.60;30.00
74359;DHT22;62792;46.236;6.040;2023-03-01T20:09:41;23.60;30.60
74359;DHT22;62792;46.236;6.040;2023-03-01T20:14:46;23.70;30.00
74359;DHT22;62792;46.236;6.040;2023-03-01T20:19:51;23.60;30.60
74359;DHT22;62792;46.236;6.040;2023-03-01T20:24:55;23.60;30.60
74359;DHT22;62792;46.236;6.040;2023-03-01T20:29:58;23.70;29.90
74359;DHT22;62792;46.236;6.040;2023-03-01T20:35:01;23.60;30.00
74359;DHT22;62792;46.236;6.040;2023-03-01T20:40:06;23.60;29.90
74359;DHT22;62792;46.236;6.040;2023-03-01T20:45:10;23.60;30.60
74359;DHT22;62792;46.236;6.040;2023-03-01T20:50:15;23.50;30.60
74359;DHT22;62792;46.236;6.040;2023-03-01T20:55:20;23.60;30.30
74359;DHT22;62792;46.236;6.040;2023-03-01T21:00:23;23.60;30.40
74359;DHT22;62792;46.236;6.040;2023-03-01T21:05:26;23.60;30.00
74359;DHT22;62792;46.236;6.040;2023-03-01T21:10:31;23.60;30.50
74359;DHT22;62792;46.236;6.040;2023-03-01T21:15:34;23.60;30.60
74359;DHT22;62792;46.236;6.040;2023-03-01T21:20:37;23.60;30.50
74359;DHT22;62792;46.236;6.040;2023-03-01T21:25:44;23.60;30.60
74359;DHT22;62792;46.236;6.040;2023-03-01T21:30:47;23.60;29.90
74359;DHT22;62792;46.236;6.040;2023-03-01T21:35:50;23.50;30.60
74359;DHT22;62792;46.236;6.040;2023-03-01T21:40:54;23.60;30.50
74359;DHT22;62792;46.236;6.040;2023-03-01T21:45:59;23.50;30.50
74359;DHT22;62792;46.236;6.040;2023-03-01T21:51:04;23.50;30.50
74359;DHT22;62792;46.236;6.040;2023-03-01T21:56:09;23.50;30.40
74359;DHT22;62792;46.236;6.040;2023-03-01T22:01:18;23.60;30.50
74359;DHT22;62792;46.236;6.040;2023-03-01T22:06:26;23.60;30.50
74359;DHT22;62792;46.236;6.040;2023-03-01T22:11:33;23.50;30.40
74359;DHT22;62792;46.236;6.040;2023-03-01T22:16:37;23.60;30.30
74359;DHT22;62792;46.236;6.040;2023-03-01T22:21:43;23.50;30.70
74359;DHT22;62792;46.236;6.040;2023-03-01T22:26:52;23.60;30.60
74359;DHT22;62792;46.236;6.040;2023-03-01T22:31:55;23.50;30.30
74359;DHT22;62792;46.236;6.040;2023-03-01T22:36:59;23.50;30.40
74359;DHT22;62792;46.236;6.040;2023-03-01T22:42:03;23.50;30.40
74359;DHT22;62792;46.236;6.040;2023-03-01T22:47:07;23.40;30.60
74359;DHT22;62792;46.236;6.040;2023-03-01T22:52:09;23.50;30.60
74359;DHT22;62792;46.236;6.040;2023-03-01T22:57:14;23.50;30.50
74359;DHT22;62792;46.236;6.040;2023-03-01T23:02:17;23.50;30.40
74359;DHT22;62792;46.236;6.040;2023-03-01T23:07:21;23.50;30.40
74359;DHT22;62792;46.236;6.040;2023-03-01T23:12:27;23.50;30.30
74359;DHT22;62792;46.236;6.040;2023-03-01T23:17:30;23.60;30.40
74359;DHT22;62792;46.236;6.040;2023-03-01T23:22:33;23.60;30.30
74359;DHT22;62792;46.236;6.040;2023-03-01T23:27:37;23.50;30.30
74359;DHT22;62792;46.236;6.040;2023-03-01T23:32:40;23.60;30.40
74359;DHT22;62792;46.236;6.040;2023-03-01T23:37:43;23.50;30.30
74359;DHT22;62792;46.236;6.040;2023-03-01T23:42:49;23.50;30.40
74359;DHT22;62792;46.236;6.040;2023-03-01T23:47:52;23.50;30.40
74359;DHT22;62792;46.236;6.040;2023-03-01T23:52:56;23.40;30.50
74359;DHT22;62792;46.236;6.040;2023-03-01T23:58:00;23.40;30.30
